createdAt,value
2018-02-21T00:02:20.233Z,-1.09
2018-02-21T00:04:48.538Z,-1.06
2018-02-21T00:07:16.853Z,-1.13
2018-02-21T00:09:45.133Z,-1.13
2018-02-21T00:12:13.431Z,-1.17
2018-02-21T00:14:41.715Z,-1.27
2018-02-21T00:17:10.039Z,-1.32
2018-02-21T00:19:38.341Z,-1.38
2018-02-21T00:22:06.650Z,-1.42
2018-02-21T00:24:35.712Z,-1.48
2018-02-21T00:27:03.988Z,-1.56
2018-02-21T00:29:32.297Z,-1.57
2018-02-21T00:32:01.333Z,-1.63
2018-02-21T00:34:29.674Z,-1.64
2018-02-21T00:36:58.718Z,-1.67
2018-02-21T00:39:27.776Z,-1.73
2018-02-21T00:41:56.812Z,-1.72
2018-02-21T00:44:25.089Z,-1.80
2018-02-21T00:46:53.363Z,-1.82
2018-02-21T00:49:21.657Z,-1.88
2018-02-21T00:51:49.932Z,-1.93
2018-02-21T00:54:18.241Z,-1.96
2018-02-21T00:56:47.289Z,-1.98
2018-02-21T00:59:15.585Z,-2.00
2018-02-21T01:01:43.866Z,-2.00
2018-02-21T01:04:12.160Z,-2.01
2018-02-21T01:06:41.226Z,-2.05
2018-02-21T01:09:09.565Z,-2.09
2018-02-21T01:11:37.853Z,-2.14
2018-02-21T01:14:06.168Z,-2.19
2018-02-21T01:16:34.445Z,-2.12
2018-02-21T01:19:02.758Z,-2.15
2018-02-21T01:21:31.056Z,-2.12
2018-02-21T01:23:59.331Z,-2.14
2018-02-21T01:26:27.676Z,-2.19
2018-02-21T01:28:55.942Z,-2.19
2018-02-21T01:31:25.029Z,-2.23
2018-02-21T01:33:53.310Z,-2.21
2018-02-21T01:36:22.370Z,-2.24
2018-02-21T01:38:50.633Z,-2.29
2018-02-21T01:41:18.907Z,-2.32
2018-02-21T01:43:47.186Z,-2.35
2018-02-21T01:46:15.466Z,-2.35
2018-02-21T01:48:43.736Z,-2.38
2018-02-21T01:51:12.058Z,-2.34
2018-02-21T01:53:41.116Z,-2.36
2018-02-21T01:56:09.418Z,-2.42
2018-02-21T01:58:37.718Z,-2.36
2018-02-21T02:01:06.029Z,-2.42
2018-02-21T02:03:34.330Z,-2.37
2018-02-21T02:06:02.620Z,-2.40
2018-02-21T02:08:30.947Z,-2.42
2018-02-21T02:10:59.241Z,-2.46
2018-02-21T02:13:27.528Z,-2.44
2018-02-21T02:15:55.805Z,-2.43
2018-02-21T02:18:24.096Z,-2.43
2018-02-21T02:20:52.372Z,-2.43
2018-02-21T02:23:20.663Z,-2.43
2018-02-21T02:25:48.941Z,-2.42
2018-02-21T02:28:17.253Z,-2.45
2018-02-21T02:30:45.540Z,-2.45
2018-02-21T02:33:13.845Z,-2.51
2018-02-21T02:35:42.166Z,-2.55
2018-02-21T02:38:29.090Z,-2.53
2018-02-21T02:40:57.353Z,-2.59
2018-02-21T02:43:26.411Z,-2.63
2018-02-21T02:45:54.680Z,-2.67
2018-02-21T02:48:22.961Z,-2.68
2018-02-21T02:50:51.260Z,-2.70
2018-02-21T02:53:19.560Z,-2.77
2018-02-21T02:55:47.851Z,-2.81
2018-02-21T02:58:16.151Z,-2.78
2018-02-21T03:00:44.472Z,-2.70
2018-02-21T03:03:13.531Z,-2.65
2018-02-21T03:05:41.825Z,-2.59
2018-02-21T03:08:10.160Z,-2.62
2018-02-21T03:10:38.526Z,-2.64
2018-02-21T03:13:06.829Z,-2.63
2018-02-21T03:15:35.146Z,-2.60
2018-02-21T03:18:04.211Z,-2.62
2018-02-21T03:20:32.555Z,-2.64
2018-02-21T03:23:00.888Z,-2.64
2018-02-21T03:25:29.159Z,-2.67
2018-02-21T03:27:57.450Z,-2.69
2018-02-21T03:30:26.539Z,-2.66
2018-02-21T03:32:54.808Z,-2.66
2018-02-21T03:35:23.153Z,-2.66
2018-02-21T03:37:51.453Z,-2.63
2018-02-21T03:40:19.743Z,-2.62
2018-02-21T03:42:48.017Z,-2.64
2018-02-21T03:45:17.053Z,-2.70
2018-02-21T03:47:45.341Z,-2.68
2018-02-21T03:50:13.614Z,-2.75
2018-02-21T03:52:41.890Z,-2.81
2018-02-21T03:55:10.176Z,-2.89
2018-02-21T03:57:38.451Z,-2.96
2018-02-21T04:00:06.769Z,-2.96
2018-02-21T04:02:35.050Z,-2.99
2018-02-21T04:05:04.105Z,-3.06
2018-02-21T04:07:32.411Z,-3.02
2018-02-21T04:10:00.765Z,-3.01
2018-02-21T04:12:29.116Z,-2.92
2018-02-21T04:14:57.421Z,-2.86
2018-02-21T04:17:25.715Z,-2.87
2018-02-21T04:19:54.004Z,-2.93
2018-02-21T04:22:23.110Z,-2.93
2018-02-21T04:24:52.169Z,-2.95
2018-02-21T04:27:20.467Z,-2.96
2018-02-21T04:29:48.765Z,-2.97
2018-02-21T04:32:17.839Z,-3.03
2018-02-21T04:34:46.907Z,-3.08
2018-02-21T04:37:15.283Z,-3.16
2018-02-21T04:39:43.571Z,-3.23
2018-02-21T04:42:11.837Z,-3.32
2018-02-21T04:44:40.118Z,-3.33
2018-02-21T04:47:08.417Z,-3.38
2018-02-21T04:49:37.472Z,-3.42
2018-02-21T04:52:05.757Z,-3.42
2018-02-21T04:57:57.429Z,-3.46
2018-02-21T05:00:25.725Z,-3.44
2018-02-21T05:02:54.777Z,-3.39
2018-02-21T05:05:23.102Z,-3.42
2018-02-21T05:07:52.133Z,-3.39
2018-02-21T05:10:20.464Z,-3.46
2018-02-21T05:12:49.525Z,-3.51
2018-02-21T05:15:17.822Z,-3.51
2018-02-21T05:17:46.105Z,-3.59
2018-02-21T05:20:15.154Z,-3.65
2018-02-21T05:22:43.438Z,-3.65
2018-02-21T05:25:11.753Z,-3.70
2018-02-21T05:27:40.822Z,-3.73
2018-02-21T05:30:09.114Z,-3.72
2018-02-21T05:32:37.397Z,-3.67
2018-02-21T05:35:06.464Z,-3.71
2018-02-21T05:37:34.752Z,-3.72
2018-02-21T05:40:03.060Z,-3.71
2018-02-21T05:42:32.121Z,-3.72
2018-02-21T05:45:00.411Z,-3.73
2018-02-21T05:47:28.699Z,-3.80
2018-02-21T05:49:57.745Z,-3.82
2018-02-21T05:52:26.037Z,-3.95
2018-02-21T05:54:54.317Z,-3.94
2018-02-21T05:57:22.609Z,-3.90
2018-02-21T05:59:50.910Z,-3.91
2018-02-21T06:02:19.176Z,-4.01
2018-02-21T06:04:48.217Z,-4.02
2018-02-21T06:07:16.523Z,-4.03
2018-02-21T06:09:44.833Z,-4.07
2018-02-21T06:12:13.128Z,-4.09
2018-02-21T06:14:41.435Z,-4.14
2018-02-21T06:17:09.708Z,-4.26
2018-02-21T06:19:38.764Z,-4.37
2018-02-21T06:22:07.039Z,-4.39
2018-02-21T06:24:35.302Z,-4.29
2018-02-21T06:27:04.344Z,-4.17
2018-02-21T06:29:32.608Z,-4.20
2018-02-21T06:32:00.881Z,-4.10
2018-02-21T06:34:29.153Z,-4.00
2018-02-21T06:36:57.449Z,-3.87
2018-02-21T06:39:25.715Z,-3.76
2018-02-21T06:41:53.973Z,-3.70
2018-02-21T06:44:22.239Z,-3.67
2018-02-21T06:46:50.508Z,-3.66
2018-02-21T06:49:18.777Z,-3.63
2018-02-21T06:51:47.804Z,-3.57
2018-02-21T06:54:16.173Z,-3.52
2018-02-21T06:56:44.465Z,-3.55
2018-02-21T06:59:12.752Z,-3.53
2018-02-21T07:01:41.655Z,-3.49
2018-02-21T07:04:09.940Z,-3.44
2018-02-21T07:06:38.212Z,-3.52
2018-02-21T07:09:08.043Z,-3.49
2018-02-21T07:11:37.105Z,-3.43
2018-02-21T07:14:05.378Z,-3.46
2018-02-21T07:16:33.669Z,-3.39
2018-02-21T07:19:01.953Z,-3.39
2018-02-21T07:21:30.219Z,-3.31
2018-02-21T07:23:58.491Z,-3.39
2018-02-21T07:26:26.779Z,-3.32
2018-02-21T07:28:55.048Z,-3.28
2018-02-21T07:31:23.309Z,-3.27
2018-02-21T07:33:51.579Z,-3.33
2018-02-21T07:36:19.849Z,-3.36
2018-02-21T07:38:48.115Z,-3.25
2018-02-21T07:41:16.376Z,-3.15
2018-02-21T07:43:44.626Z,-3.02
2018-02-21T07:46:13.659Z,-3.05
2018-02-21T07:48:41.934Z,-2.97
2018-02-21T07:51:10.204Z,-3.13
2018-02-21T07:53:38.465Z,-3.05
2018-02-21T07:56:06.727Z,-2.99
2018-02-21T07:58:35.756Z,-2.87
2018-02-21T08:01:04.095Z,-2.93
2018-02-21T08:03:33.076Z,-2.86
2018-02-21T08:06:02.100Z,-2.79
2018-02-21T08:08:30.367Z,-2.84
2018-02-21T08:10:58.652Z,-2.67
2018-02-21T08:13:26.901Z,-2.50
2018-02-21T08:15:55.919Z,-2.51
2018-02-21T08:18:24.214Z,-2.47
2018-02-21T08:20:52.472Z,-2.30
2018-02-21T08:23:20.773Z,-2.33
2018-02-21T08:25:49.058Z,-2.22
2018-02-21T08:28:17.484Z,-2.18
2018-02-21T08:30:46.029Z,-2.23
2018-02-21T08:33:14.362Z,-2.09
2018-02-21T08:35:42.725Z,-1.97
2018-02-21T08:38:11.049Z,-1.93
2018-02-21T08:40:39.445Z,-1.86
2018-02-21T08:43:08.092Z,-1.72
2018-02-21T08:45:36.430Z,-1.83
2018-02-21T08:48:05.504Z,-1.56
2018-02-21T08:50:33.814Z,-1.36
2018-02-21T08:53:02.846Z,-1.32
2018-02-21T08:55:31.113Z,-1.28
2018-02-21T08:57:59.386Z,-1.43
2018-02-21T09:00:27.649Z,-1.47
2018-02-21T09:02:55.920Z,-1.39
2018-02-21T09:05:24.176Z,-1.18
2018-02-21T09:07:53.228Z,-1.00
2018-02-21T09:10:21.489Z,-1.10
2018-02-21T09:12:49.744Z,-0.97
2018-02-21T09:15:18.017Z,-1.06
2018-02-21T09:17:46.280Z,-0.65
2018-02-21T09:20:15.307Z,-0.57
2018-02-21T09:22:43.575Z,-0.41
2018-02-21T09:25:11.855Z,-0.27
2018-02-21T09:27:40.125Z,-0.25
2018-02-21T09:30:08.425Z,-0.32
2018-02-21T09:32:36.693Z,-0.54
2018-02-21T09:35:04.976Z,-0.44
2018-02-21T09:37:33.252Z,-0.29
2018-02-21T09:40:01.522Z,-0.27
2018-02-21T09:42:30.546Z,-0.02
2018-02-21T09:44:58.819Z,-0.05
2018-02-21T09:47:27.074Z,0.01
2018-02-21T09:49:55.340Z,0.20
2018-02-21T09:52:23.621Z,0.09
2018-02-21T09:54:51.882Z,0.20
2018-02-21T09:57:20.139Z,-0.19
2018-02-21T09:59:48.410Z,0.31
2018-02-21T10:02:16.661Z,0.56
2018-02-21T10:04:45.686Z,0.66
2018-02-21T10:07:13.945Z,0.70
2018-02-21T10:09:43.003Z,0.60
2018-02-21T10:12:11.261Z,0.69
2018-02-21T10:14:39.522Z,0.69
2018-02-21T10:17:07.778Z,0.85
2018-02-21T10:19:36.034Z,0.92
2018-02-21T10:22:05.065Z,0.76
2018-02-21T10:24:33.317Z,1.22
2018-02-21T10:27:01.588Z,1.32
2018-02-21T10:29:29.843Z,1.33
2018-02-21T10:31:58.098Z,1.09
2018-02-21T10:34:26.363Z,1.31
2018-02-21T10:36:54.636Z,1.49
2018-02-21T10:39:22.889Z,1.66
2018-02-21T10:41:51.143Z,1.67
2018-02-21T10:44:19.399Z,1.82
2018-02-21T10:46:47.653Z,2.17
2018-02-21T10:49:15.906Z,1.78
2018-02-21T10:51:44.176Z,1.95
2018-02-21T10:54:12.430Z,1.65
2018-02-21T10:56:40.709Z,1.63
2018-02-21T10:59:10.038Z,1.46
2018-02-21T11:01:38.374Z,1.87
2018-02-21T11:04:06.678Z,1.78
2018-02-21T11:06:34.981Z,1.77
2018-02-21T11:09:03.280Z,2.06
2018-02-21T11:11:31.577Z,3.52
2018-02-21T11:14:00.687Z,4.53
2018-02-21T11:16:28.975Z,4.80
2018-02-21T11:18:57.287Z,5.59
2018-02-21T11:21:25.577Z,6.12
2018-02-21T11:23:53.873Z,5.68
2018-02-21T11:26:22.917Z,6.20
2018-02-21T11:28:51.275Z,5.49
2018-02-21T11:31:19.536Z,5.87
2018-02-21T11:33:47.870Z,5.72
2018-02-21T11:36:16.151Z,6.35
2018-02-21T11:38:44.438Z,6.53
2018-02-21T11:41:12.711Z,6.69
2018-02-21T11:43:41.021Z,6.33
2018-02-21T11:46:09.320Z,6.46
2018-02-21T11:48:37.629Z,5.12
2018-02-21T11:51:05.897Z,5.68
2018-02-21T11:53:34.197Z,6.55
2018-02-21T11:56:02.484Z,6.83
2018-02-21T11:58:31.547Z,6.81
2018-02-21T12:00:59.827Z,7.36
2018-02-21T12:03:28.113Z,7.83
2018-02-21T12:05:56.400Z,7.27
2018-02-21T12:08:25.468Z,5.91
2018-02-21T12:10:53.813Z,7.14
2018-02-21T12:13:22.113Z,7.03
2018-02-21T12:15:50.424Z,7.02
2018-02-21T12:18:19.499Z,6.30
2018-02-21T12:20:47.790Z,6.39
2018-02-21T12:23:16.086Z,7.67
2018-02-21T12:25:44.372Z,7.76
2018-02-21T12:28:12.658Z,7.42
2018-02-21T12:30:40.972Z,6.55
2018-02-21T12:33:09.289Z,6.58
2018-02-21T12:35:38.345Z,7.58
2018-02-21T12:38:06.619Z,8.37
2018-02-21T12:43:39.563Z,9.02
2018-02-21T12:46:08.584Z,8.61
2018-02-21T12:48:36.822Z,9.02
2018-02-21T12:51:05.857Z,8.27
2018-02-21T12:53:34.104Z,8.19
2018-02-21T12:56:03.144Z,7.98
2018-02-21T12:58:31.383Z,8.82
2018-02-21T13:00:59.630Z,8.68
2018-02-21T13:03:28.677Z,9.92
2018-02-21T13:05:56.975Z,11.19
2018-02-21T13:08:25.186Z,9.83
2018-02-21T13:10:54.233Z,10.49
2018-02-21T13:13:22.489Z,9.92
2018-02-21T13:15:50.737Z,9.59
2018-02-21T13:18:19.769Z,10.44
2018-02-21T13:20:48.011Z,9.41
2018-02-21T13:23:16.263Z,9.81
2018-02-21T13:25:44.526Z,10.15
2018-02-21T13:28:12.774Z,10.74
2018-02-21T13:30:41.038Z,10.47
2018-02-21T13:33:09.317Z,10.89
2018-02-21T13:35:37.556Z,9.37
2018-02-21T13:38:06.581Z,11.19
2018-02-21T13:40:34.827Z,10.09
2018-02-21T13:43:03.842Z,8.98
2018-02-21T13:45:32.086Z,10.07
2018-02-21T13:48:01.112Z,9.51
2018-02-21T13:50:29.355Z,9.79
2018-02-21T13:52:58.371Z,9.41
2018-02-21T13:55:26.622Z,9.56
2018-02-21T13:57:55.631Z,9.12
2018-02-21T14:00:23.872Z,8.66
2018-02-21T14:02:52.129Z,10.33
2018-02-21T14:05:20.377Z,10.09
2018-02-21T14:07:48.641Z,10.11
2018-02-21T14:10:16.887Z,10.10
2018-02-21T14:12:45.142Z,9.44
2018-02-21T14:15:13.402Z,9.56
2018-02-21T14:17:41.653Z,10.00
2018-02-21T14:20:09.894Z,9.52
2018-02-21T14:22:38.908Z,9.52
2018-02-21T14:25:07.152Z,7.33
2018-02-21T14:27:35.426Z,9.25
2018-02-21T14:30:03.666Z,9.21
2018-02-21T14:32:31.913Z,8.33
2018-02-21T14:35:00.172Z,8.74
2018-02-21T14:37:29.183Z,8.22
2018-02-21T14:39:57.439Z,8.24
2018-02-21T14:42:26.462Z,9.85
2018-02-21T14:44:54.706Z,8.24
2018-02-21T14:47:23.715Z,7.70
2018-02-21T14:49:51.966Z,7.06
2018-02-21T14:52:20.979Z,6.14
2018-02-21T14:54:49.991Z,5.10
2018-02-21T14:57:18.230Z,4.00
2018-02-21T14:59:47.263Z,3.87
2018-02-21T15:02:15.514Z,4.22
2018-02-21T15:04:43.765Z,4.58
2018-02-21T15:07:12.783Z,3.79
2018-02-21T15:09:41.053Z,4.21
2018-02-21T15:12:10.077Z,4.52
2018-02-21T15:14:38.327Z,4.39
2018-02-21T15:17:06.577Z,4.33
2018-02-21T15:19:35.618Z,4.28
2018-02-21T15:22:03.863Z,4.31
2018-02-21T15:24:32.893Z,4.50
2018-02-21T15:27:01.151Z,4.23
2018-02-21T15:29:29.399Z,3.97
2018-02-21T15:31:58.430Z,3.87
2018-02-21T15:34:26.687Z,3.45
2018-02-21T15:36:54.946Z,3.29
2018-02-21T15:39:23.963Z,3.33
2018-02-21T15:41:52.224Z,3.28
2018-02-21T15:44:21.237Z,3.64
2018-02-21T15:46:49.498Z,4.11
2018-02-21T15:49:17.755Z,3.49
2018-02-21T15:51:46.775Z,3.07
2018-02-21T15:54:15.025Z,2.47
2018-02-21T15:56:44.047Z,2.57
2018-02-21T15:59:12.291Z,2.59
2018-02-21T16:01:41.330Z,2.42
2018-02-21T16:04:09.575Z,2.36
2018-02-21T16:06:37.830Z,2.24
2018-02-21T16:09:06.882Z,2.09
2018-02-21T16:11:35.128Z,2.12
2018-02-21T16:14:03.378Z,2.08
2018-02-21T16:16:32.394Z,2.18
2018-02-21T16:19:01.283Z,1.95
2018-02-21T16:21:29.540Z,1.90
2018-02-21T16:23:58.572Z,1.78
2018-02-21T16:26:26.818Z,1.69
2018-02-21T16:28:55.078Z,1.60
2018-02-21T16:31:24.099Z,1.65
2018-02-21T16:33:52.371Z,1.59
2018-02-21T16:36:20.627Z,1.47
2018-02-21T16:38:49.656Z,1.42
2018-02-21T16:41:17.913Z,1.30
2018-02-21T16:43:46.184Z,1.26
2018-02-21T16:46:14.439Z,1.25
2018-02-21T16:48:42.711Z,1.16
2018-02-21T16:51:10.951Z,1.04
2018-02-21T16:53:39.217Z,1.00
2018-02-21T16:56:07.473Z,0.93
2018-02-21T16:58:35.729Z,0.87
2018-02-21T17:01:04.760Z,0.88
2018-02-21T17:03:33.002Z,0.72
2018-02-21T17:06:02.022Z,0.70
2018-02-21T17:08:30.280Z,0.64
2018-02-21T17:10:58.552Z,0.64
2018-02-21T17:13:27.561Z,0.60
2018-02-21T17:15:55.827Z,0.50
2018-02-21T17:18:24.086Z,0.40
2018-02-21T17:20:53.104Z,0.36
2018-02-21T17:23:21.357Z,0.36
2018-02-21T17:25:50.378Z,0.24
2018-02-21T17:28:18.636Z,0.23
2018-02-21T17:30:46.892Z,0.16
2018-02-21T17:33:15.916Z,0.21
2018-02-21T17:35:44.176Z,0.17
2018-02-21T17:38:13.228Z,0.05
2018-02-21T17:40:47.062Z,0.03
2018-02-21T17:43:16.077Z,0.00
2018-02-21T17:45:44.411Z,-0.04
2018-02-21T17:48:12.666Z,-0.10
2018-02-21T17:50:40.918Z,-0.11
2018-02-21T17:53:09.186Z,-0.17
2018-02-21T17:55:37.437Z,-0.24
2018-02-21T17:58:06.477Z,-0.24
2018-02-21T18:00:34.738Z,-0.31
2018-02-21T18:03:02.998Z,-0.40
2018-02-21T18:05:31.253Z,-0.38
2018-02-21T18:08:00.293Z,-0.44
2018-02-21T18:10:28.547Z,-0.42
2018-02-21T18:12:56.807Z,-0.47
2018-02-21T18:15:25.835Z,-0.50
2018-02-21T18:17:54.104Z,-0.55
2018-02-21T18:20:22.358Z,-0.51
2018-02-21T18:22:50.621Z,-0.52
2018-02-21T18:25:19.642Z,-0.59
2018-02-21T18:27:49.243Z,-0.47
2018-02-21T18:30:18.256Z,-0.53
2018-02-21T18:32:46.547Z,-0.63
2018-02-21T18:35:14.816Z,-0.64
2018-02-21T18:37:43.105Z,-0.63
2018-02-21T18:40:12.184Z,-0.70
2018-02-21T18:42:40.518Z,-0.76
2018-02-21T18:45:09.579Z,-0.80
2018-02-21T18:47:37.846Z,-0.81
2018-02-21T18:50:06.103Z,-0.90
2018-02-21T18:52:35.990Z,-0.85
2018-02-21T18:55:04.467Z,-0.91
2018-02-21T18:57:33.496Z,-0.91
2018-02-21T19:00:01.799Z,-0.88
2018-02-21T19:02:30.252Z,-0.88
2018-02-21T19:04:58.653Z,-0.91
2018-02-21T19:07:27.673Z,-0.84
2018-02-21T19:09:56.707Z,-0.86
2018-02-21T19:12:24.971Z,-0.82
2018-02-21T19:14:53.225Z,-0.88
2018-02-21T19:17:22.248Z,-0.92
2018-02-21T19:19:50.523Z,-0.96
2018-02-21T19:22:18.785Z,-1.00
2018-02-21T19:24:47.047Z,-0.91
2018-02-21T19:27:16.063Z,-0.90
2018-02-21T19:29:44.328Z,-1.04
2018-02-21T19:32:12.603Z,-1.04
2018-02-21T19:34:41.650Z,-1.09
2018-02-21T19:37:09.947Z,-1.11
2018-02-21T19:39:38.192Z,-1.09
2018-02-21T19:42:06.496Z,-1.15
2018-02-21T19:44:34.762Z,-1.15
2018-02-21T19:47:03.300Z,-1.08
2018-02-21T19:49:32.994Z,-1.15
2018-02-21T19:52:01.583Z,-1.18
2018-02-21T19:54:34.295Z,-1.16
2018-02-21T19:57:06.463Z,-1.22
2018-02-21T19:59:37.505Z,-1.21
2018-02-21T20:02:06.598Z,-1.28
2018-02-21T20:04:35.614Z,-1.29
2018-02-21T20:07:04.714Z,-1.33
2018-02-21T20:09:33.018Z,-1.33
2018-02-21T20:12:02.237Z,-1.36
2018-02-21T20:14:30.809Z,-1.37
2018-02-21T20:16:59.098Z,-1.36
2018-02-21T20:19:27.353Z,-1.35
2018-02-21T20:21:55.675Z,-1.35
2018-02-21T20:24:23.968Z,-1.36
2018-02-21T20:26:52.271Z,-1.35
2018-02-21T20:29:21.321Z,-1.38
2018-02-21T20:31:49.624Z,-1.40
2018-02-21T20:34:17.882Z,-1.40
2018-02-21T20:36:46.162Z,-1.39
2018-02-21T20:39:14.449Z,-1.39
2018-02-21T20:41:42.712Z,-1.45
2018-02-21T20:44:11.784Z,-1.49
2018-02-21T20:46:40.058Z,-1.45
2018-02-21T20:49:08.323Z,-1.43
2018-02-21T20:51:36.668Z,-1.52
2018-02-21T20:54:04.932Z,-1.54
2018-02-21T20:56:33.234Z,-1.55
2018-02-21T20:59:01.546Z,-1.55
2018-02-21T21:01:29.855Z,-1.59
2018-02-21T21:03:58.188Z,-1.62
2018-02-21T21:06:26.537Z,-1.63
2018-02-21T21:08:55.612Z,-1.62
2018-02-21T21:11:24.456Z,-1.64
2018-02-21T21:13:53.039Z,-1.69
2018-02-21T21:16:21.579Z,-1.66
2018-02-21T21:18:52.555Z,-1.66
2018-02-21T21:21:20.994Z,-1.69
2018-02-21T21:23:50.640Z,-1.70
2018-02-21T21:26:19.082Z,-1.74
2018-02-21T21:28:48.521Z,-1.73
2018-02-21T21:31:16.946Z,-1.81
2018-02-21T21:33:45.637Z,-1.74
2018-02-21T21:36:14.286Z,-1.78
2018-02-21T21:38:42.987Z,-1.73
2018-02-21T21:41:11.474Z,-1.73
2018-02-21T21:43:39.787Z,-1.79
2018-02-21T21:46:08.935Z,-1.77
2018-02-21T21:48:37.376Z,-1.82
2018-02-21T21:51:05.869Z,-1.82
2018-02-21T21:53:34.276Z,-1.79
2018-02-21T21:56:02.897Z,-1.84
2018-02-21T21:58:31.681Z,-1.89
2018-02-21T22:01:00.196Z,-1.89
2018-02-21T22:03:28.563Z,-1.80
2018-02-21T22:05:57.790Z,-1.80
2018-02-21T22:08:26.281Z,-1.87
2018-02-21T22:10:56.186Z,-1.93
2018-02-21T22:13:27.658Z,-1.94
2018-02-21T22:15:56.091Z,-1.98
2018-02-21T22:18:24.419Z,-2.04
2018-02-21T22:20:52.764Z,-2.05
2018-02-21T22:23:21.075Z,-2.09
2018-02-21T22:25:49.424Z,-2.05
2018-02-21T22:28:18.612Z,-2.08
2018-02-21T22:30:47.001Z,-2.06
2018-02-21T22:33:15.417Z,-2.10
2018-02-21T22:35:43.807Z,-2.05
2018-02-21T22:38:12.136Z,-2.04
2018-02-21T22:40:40.457Z,-2.18
2018-02-21T22:43:08.804Z,-2.19
2018-02-21T22:45:37.066Z,-2.28
2018-02-21T22:48:05.335Z,-2.23
2018-02-21T22:50:34.369Z,-2.18
2018-02-21T22:53:02.989Z,-2.21
2018-02-21T22:55:42.887Z,-2.18
2018-02-21T22:58:11.962Z,-2.20
2018-02-21T23:00:40.264Z,-2.19
2018-02-21T23:03:08.601Z,-2.22
2018-02-21T23:05:36.931Z,-2.19
2018-02-21T23:08:06.001Z,-2.24
2018-02-21T23:10:37.003Z,-2.26
2018-02-21T23:13:06.040Z,-2.25
2018-02-21T23:15:34.673Z,-2.24
2018-02-21T23:18:04.594Z,-2.27
2018-02-21T23:20:33.292Z,-2.32
2018-02-21T23:23:04.331Z,-2.32
2018-02-21T23:25:32.826Z,-2.37
2018-02-21T23:28:01.252Z,-2.30
2018-02-21T23:30:29.614Z,-2.39
2018-02-21T23:32:57.973Z,-2.42
2018-02-21T23:35:26.338Z,-2.40
2018-02-21T23:37:54.735Z,-2.41
2018-02-21T23:40:23.109Z,-2.43
2018-02-21T23:42:51.459Z,-2.37
2018-02-21T23:45:19.869Z,-2.42
2018-02-21T23:47:49.040Z,-2.45
2018-02-21T23:50:17.432Z,-2.44
2018-02-21T23:52:45.839Z,-2.46
2018-02-21T23:55:14.248Z,-2.45
2018-02-21T23:57:43.467Z,-2.46
